createdAt,value
2022-12-28T00:03:54.207Z,1025.69
2022-12-28T00:09:01.436Z,1025.72
2022-12-28T00:14:08.781Z,1025.64
2022-12-28T00:19:15.868Z,1025.60
2022-12-28T00:24:23.061Z,1025.55
2022-12-28T00:29:30.330Z,1025.61
2022-12-28T00:34:37.445Z,1025.52
2022-12-28T00:39:44.653Z,1025.53
2022-12-28T00:44:51.909Z,1025.64
2022-12-28T00:49:59.081Z,1025.64
2022-12-28T00:55:06.344Z,1025.66
2022-12-28T01:00:13.636Z,1025.76
2022-12-28T01:05:20.809Z,1025.65
2022-12-28T01:10:27.985Z,1025.62
2022-12-28T01:15:35.214Z,1025.51
2022-12-28T01:20:42.434Z,1025.44
2022-12-28T01:25:49.615Z,1025.51
2022-12-28T01:30:56.843Z,1025.46
2022-12-28T01:36:04.009Z,1025.43
2022-12-28T01:41:11.330Z,1025.51
2022-12-28T01:46:18.585Z,1025.48
2022-12-28T01:51:25.791Z,1025.38
2022-12-28T01:56:33.013Z,1025.35
2022-12-28T02:01:40.372Z,1025.42
2022-12-28T02:06:47.463Z,1025.27
2022-12-28T02:11:54.750Z,1025.20
2022-12-28T02:17:02.059Z,1025.10
2022-12-28T02:22:09.172Z,1025.07
2022-12-28T02:27:16.400Z,1024.92
2022-12-28T02:32:23.648Z,1024.79
2022-12-28T02:37:30.883Z,1024.71
2022-12-28T02:42:38.104Z,1024.75
2022-12-28T02:47:45.325Z,1024.81
2022-12-28T02:52:52.494Z,1024.87
2022-12-28T02:57:59.740Z,1024.74
2022-12-28T03:03:07.142Z,1024.66
2022-12-28T03:08:14.205Z,1024.54
2022-12-28T03:13:21.511Z,1024.47
2022-12-28T03:18:28.797Z,1024.49
2022-12-28T03:23:35.960Z,1024.49
2022-12-28T03:28:43.126Z,1024.56
2022-12-28T03:33:50.391Z,1024.41
2022-12-28T03:38:57.555Z,1024.39
2022-12-28T03:44:04.765Z,1024.37
2022-12-28T03:49:11.944Z,1024.24
2022-12-28T03:54:19.167Z,1024.12
2022-12-28T03:59:26.427Z,1024.11
2022-12-28T04:04:33.693Z,1024.16
2022-12-28T04:09:40.888Z,1024.04
2022-12-28T04:14:48.125Z,1024.09
2022-12-28T04:19:55.378Z,1024.07
2022-12-28T04:25:02.613Z,1023.95
2022-12-28T04:30:09.816Z,1023.98
2022-12-28T04:35:17.067Z,1023.99
2022-12-28T04:40:24.270Z,1023.97
2022-12-28T04:45:31.496Z,1023.97
2022-12-28T04:50:38.789Z,1023.94
2022-12-28T04:55:46.026Z,1024.00
2022-12-28T05:00:53.296Z,1023.87
2022-12-28T05:06:00.445Z,1023.90
2022-12-28T05:11:07.673Z,1023.86
2022-12-28T05:16:14.926Z,1023.88
2022-12-28T05:21:22.180Z,1023.91
2022-12-28T05:26:29.509Z,1023.94
2022-12-28T05:31:36.652Z,1023.85
2022-12-28T05:36:43.774Z,1023.78
2022-12-28T05:41:50.956Z,1023.64
2022-12-28T05:46:58.183Z,1023.66
2022-12-28T05:52:05.354Z,1023.55
2022-12-28T05:57:12.595Z,1023.63
2022-12-28T06:02:24.573Z,1023.55
2022-12-28T06:07:27.038Z,1023.53
2022-12-28T06:12:34.203Z,1023.58
2022-12-28T06:17:41.390Z,1023.48
2022-12-28T06:22:48.624Z,1023.41
2022-12-28T06:27:55.834Z,1023.44
2022-12-28T06:33:02.995Z,1023.48
2022-12-28T06:38:10.237Z,1023.53
2022-12-28T06:43:17.428Z,1023.35
2022-12-28T06:48:24.646Z,1023.49
2022-12-28T06:53:31.850Z,1023.48
2022-12-28T06:58:39.041Z,1023.50
2022-12-28T07:03:46.284Z,1023.60
2022-12-28T07:08:53.466Z,1023.53
2022-12-28T07:14:00.844Z,1023.48
2022-12-28T07:19:08.060Z,1023.47
2022-12-28T07:24:15.233Z,1023.46
2022-12-28T07:29:22.357Z,1023.34
2022-12-28T07:34:29.585Z,1023.43
2022-12-28T07:39:36.831Z,1023.51
2022-12-28T07:44:48.788Z,1023.55
2022-12-28T07:49:51.229Z,1023.53
2022-12-28T07:54:58.402Z,1023.53
2022-12-28T08:00:05.549Z,1023.51
2022-12-28T08:05:12.805Z,1023.50
2022-12-28T08:10:20.080Z,1023.49
2022-12-28T08:15:27.288Z,1023.39
2022-12-28T08:20:34.411Z,1023.33
2022-12-28T08:25:41.680Z,1023.26
2022-12-28T08:30:48.865Z,1023.24
2022-12-28T08:35:56.093Z,1023.14
2022-12-28T08:41:03.457Z,1023.14
2022-12-28T08:46:10.842Z,1023.09
2022-12-28T08:51:17.854Z,1023.06
2022-12-28T08:56:25.075Z,1023.08
2022-12-28T09:01:37.304Z,1023.04
2022-12-28T09:06:39.509Z,1023.06
2022-12-28T09:11:46.776Z,1022.96
2022-12-28T09:16:54.101Z,1022.99
2022-12-28T09:22:01.261Z,1022.88
2022-12-28T09:27:08.506Z,1022.84
2022-12-28T09:32:15.709Z,1022.81
2022-12-28T09:37:22.950Z,1022.78
2022-12-28T09:42:30.210Z,1022.69
2022-12-28T09:47:37.410Z,1022.62
2022-12-28T09:52:49.489Z,1022.53
2022-12-28T09:57:51.831Z,1022.61
2022-12-28T10:02:59.065Z,1022.54
2022-12-28T10:08:06.261Z,1022.45
2022-12-28T10:13:45.551Z,1022.36
2022-12-28T10:18:20.714Z,1022.24
2022-12-28T10:23:27.871Z,1022.07
2022-12-28T10:28:35.081Z,1021.99
2022-12-28T10:33:42.284Z,1021.89
2022-12-28T10:38:49.547Z,1021.76
2022-12-28T10:44:29.429Z,1021.63
2022-12-28T10:49:03.953Z,1021.62
2022-12-28T10:54:11.158Z,1021.46
2022-12-28T10:59:18.393Z,1021.43
2022-12-28T11:04:25.590Z,1021.36
2022-12-28T11:09:32.782Z,1021.18
2022-12-28T11:14:40.006Z,1021.08
2022-12-28T11:19:47.192Z,1020.95
2022-12-28T11:24:54.458Z,1020.94
2022-12-28T11:30:01.795Z,1020.94
2022-12-28T11:35:08.908Z,1020.84
2022-12-28T11:40:16.217Z,1020.75
2022-12-28T11:45:23.413Z,1020.54
2022-12-28T11:50:30.595Z,1020.53
2022-12-28T11:55:37.812Z,1020.37
2022-12-28T12:00:45.014Z,1020.24
2022-12-28T12:05:52.196Z,1020.14
2022-12-28T12:10:59.401Z,1020.05
2022-12-28T12:16:06.633Z,1020.01
2022-12-28T12:21:16.214Z,1019.94
2022-12-28T12:26:21.073Z,1019.86
2022-12-28T12:31:28.272Z,1019.81
2022-12-28T12:36:35.460Z,1019.76
2022-12-28T12:41:42.683Z,1019.71
2022-12-28T12:46:49.906Z,1019.69
2022-12-28T12:51:57.099Z,1019.69
2022-12-28T12:57:04.346Z,1019.65
2022-12-28T13:02:11.874Z,1019.58
2022-12-28T13:07:18.778Z,1019.45
2022-12-28T13:12:26.043Z,1019.41
2022-12-28T13:17:33.224Z,1019.33
2022-12-28T13:22:40.390Z,1019.25
2022-12-28T13:27:47.551Z,1019.31
2022-12-28T13:32:55.010Z,1019.27
2022-12-28T13:38:02.232Z,1019.17
2022-12-28T13:43:09.434Z,1019.08
2022-12-28T13:48:16.628Z,1018.95
2022-12-28T13:53:23.822Z,1018.97
2022-12-28T13:58:31.017Z,1018.96
2022-12-28T14:03:41.384Z,1018.96
2022-12-28T14:08:45.460Z,1018.91
2022-12-28T14:13:52.647Z,1018.95
2022-12-28T14:18:59.889Z,1019.05
2022-12-28T14:24:07.091Z,1019.08
2022-12-28T14:29:14.252Z,1019.16
2022-12-28T14:34:21.491Z,1019.14
2022-12-28T14:39:28.658Z,1019.18
2022-12-28T14:44:35.876Z,1019.09
2022-12-28T14:49:43.119Z,1019.09
2022-12-28T14:54:50.289Z,1019.16
2022-12-28T14:59:57.505Z,1019.02
2022-12-28T15:05:04.712Z,1019.07
2022-12-28T15:10:11.917Z,1019.12
2022-12-28T15:15:19.127Z,1019.08
2022-12-28T15:20:26.389Z,1019.06
2022-12-28T15:25:33.532Z,1019.02
2022-12-28T15:30:40.731Z,1018.97
2022-12-28T15:35:47.976Z,1018.85
2022-12-28T15:40:55.199Z,1018.85
2022-12-28T15:46:02.445Z,1018.84
2022-12-28T15:51:09.763Z,1018.82
2022-12-28T15:56:16.909Z,1018.87
2022-12-28T16:01:24.233Z,1018.86
2022-12-28T16:06:31.324Z,1018.73
2022-12-28T16:11:38.505Z,1018.74
2022-12-28T16:16:45.770Z,1018.70
2022-12-28T16:21:53.001Z,1018.76
2022-12-28T16:27:00.146Z,1018.65
2022-12-28T16:32:07.476Z,1018.67
2022-12-28T16:37:14.592Z,1018.65
2022-12-28T16:42:21.829Z,1018.63
2022-12-28T16:47:28.999Z,1018.64
2022-12-28T16:52:36.227Z,1018.53
2022-12-28T16:57:43.412Z,1018.41
2022-12-28T17:02:50.715Z,1018.44
2022-12-28T17:07:57.853Z,1018.49
2022-12-28T17:13:05.001Z,1018.46
2022-12-28T17:18:12.240Z,1018.43
2022-12-28T17:23:19.472Z,1018.36
2022-12-28T17:28:26.713Z,1018.38
2022-12-28T17:33:38.911Z,1018.29
2022-12-28T17:38:41.204Z,1018.16
2022-12-28T17:43:48.406Z,1018.17
2022-12-28T17:48:55.605Z,1018.18
2022-12-28T17:54:02.795Z,1018.11
2022-12-28T17:59:10.186Z,1017.95
2022-12-28T18:04:17.403Z,1018.02
2022-12-28T18:09:27.973Z,1018.04
2022-12-28T18:14:31.832Z,1018.05
2022-12-28T18:19:38.985Z,1018.02
2022-12-28T18:24:46.164Z,1017.95
2022-12-28T18:29:53.350Z,1017.98
2022-12-28T18:35:00.517Z,1018.01
2022-12-28T18:40:07.744Z,1018.00
2022-12-28T18:45:15.221Z,1018.04
2022-12-28T18:50:22.630Z,1018.01
2022-12-28T18:55:29.890Z,1018.03
2022-12-28T19:00:37.367Z,1018.03
2022-12-28T19:05:44.956Z,1017.99
2022-12-28T19:10:52.530Z,1018.05
2022-12-28T19:15:59.925Z,1017.96
2022-12-28T19:21:07.054Z,1017.90
2022-12-28T19:26:14.319Z,1017.86
2022-12-28T19:31:21.570Z,1017.74
2022-12-28T19:36:28.720Z,1017.67
2022-12-28T19:41:35.932Z,1017.68
2022-12-28T19:46:43.181Z,1017.66
2022-12-28T19:51:50.336Z,1017.67
2022-12-28T19:56:57.543Z,1017.56
2022-12-28T20:02:04.799Z,1017.50
2022-12-28T20:07:12.236Z,1017.55
2022-12-28T20:12:19.900Z,1017.46
2022-12-28T20:17:27.387Z,1017.50
2022-12-28T20:22:34.687Z,1017.49
2022-12-28T20:27:41.899Z,1017.56
2022-12-28T20:32:49.049Z,1017.43
2022-12-28T20:37:56.316Z,1017.24
2022-12-28T20:43:03.515Z,1017.24
2022-12-28T20:48:10.756Z,1017.16
2022-12-28T20:53:18.312Z,1017.16
2022-12-28T20:58:25.642Z,1017.08
2022-12-28T21:03:33.239Z,1017.07
2022-12-28T21:08:40.535Z,1017.09
2022-12-28T21:13:47.785Z,1017.00
2022-12-28T21:18:55.166Z,1016.91
2022-12-28T21:24:02.471Z,1016.95
2022-12-28T21:29:09.996Z,1017.00
2022-12-28T21:34:17.583Z,1017.07
2022-12-28T21:39:24.952Z,1016.99
2022-12-28T21:44:32.179Z,1017.01
2022-12-28T21:49:39.316Z,1016.78
2022-12-28T21:54:46.522Z,1016.68
2022-12-28T21:59:53.746Z,1016.52
2022-12-28T22:05:03.232Z,1016.51
2022-12-28T22:10:08.118Z,1016.59
2022-12-28T22:15:15.309Z,1016.62
2022-12-28T22:20:22.543Z,1016.74
2022-12-28T22:25:29.742Z,1016.64
2022-12-28T22:30:37.002Z,1016.78
2022-12-28T22:35:44.142Z,1016.67
2022-12-28T22:40:51.325Z,1016.65
2022-12-28T22:45:58.619Z,1016.61
2022-12-28T22:51:05.780Z,1016.65
2022-12-28T22:56:13.022Z,1016.54
2022-12-28T23:01:20.362Z,1016.50
2022-12-28T23:06:27.472Z,1016.53
2022-12-28T23:11:34.713Z,1016.52
2022-12-28T23:16:42.055Z,1016.44
2022-12-28T23:21:49.202Z,1016.47
2022-12-28T23:26:56.433Z,1016.48
2022-12-28T23:32:03.641Z,1016.37
2022-12-28T23:37:10.837Z,1016.34
2022-12-28T23:42:18.031Z,1016.26
2022-12-28T23:47:25.297Z,1016.14
2022-12-28T23:52:32.526Z,1016.11
2022-12-28T23:57:39.751Z,1016.01
